Airfield :
LOGIN :

Register | Disclaimer

   EN    FR    IT 

 










Legend :    VFR   Marginal VFR   IFR   Intensive IFR   Very Intensive IFR
Visi :
Ceiling :
>= 8 km
>= 3000ft
5 to 8 km
1000 to 3000 ft
1500m to 5 km
500 to 1000 ft
800 to 1500m
200 to 500 ft
< 800m
< 200 ft
Symbols :   Thunderstorms  Fog  Heavy snow  Heavy precipitations  Wind > 20 kt
SIGMETs :     Misc.  Thunderstorms  Icing  Turbulence  Mountain Waves  Volcanic Ashes







- Airport Elevation : 364 ft
- Download approach charts


LFAQ - Albert Bray

CURRENT METAR :
  • 170100Z AUTO 34009KT 9999 ///TCU 15/14 Q1016

EXPIRED METARs :
  • 170030Z AUTO 33008KT 9999 SCT009/// BKN020/// BKN078/// ///TCU 16/15 Q1016
  • 170000Z AUTO 31004KT 230V020 7000 1900 +RA FEW014/// BKN064/// OVC100/// ///CB 16/15 Q1016
  • 162330Z AUTO 01004KT 9999 ///CB 16/15 Q1016
  • 162300Z AUTO 33007KT 9999 FEW033/// OVC066/// ///CB 16/16 Q1016
  • 162230Z AUTO 33008KT 6000 RA FEW030/// BKN054/// BKN066/// ///CB 16/15 Q1017

Expired Forecast.
No reported NOTAMs for that airfield.
1 SIGMET reported for the Paris FIR (LFFF) :
 
Embedded thunderstorms
LFFF SIGMET 1 VALID 170100/170300 LFPW
LFFF PARIS FIR/UIR EMBD TS OBS WI N5030 E00345 - N5015 E00430 - N4900 E00245 - N4900 E00215 - N5030 E00345 TOP FL360 MOV E 10KT NC=



MET'MAP, your aeronautical weather chart ! - Copyright ORBIFLY December 2007 - Disclaimer

ORBIFLY MET'MAP TEAM :

Programming & Development : Alexandra Zaïnal
Concept & Development : Baudouin d'Aumeries
Co-Development & Prog : Marc-Olivier Méhu
Technical & hardware support : Manuel Goepfert

Contact : metmap@orbifly.com




SOURCES & CREDITS :

   NOAA